DW2427 Weather Reports


Display with metric or nautical units.
time (UTC)temp
F
wind
direction
speed
MPH
gust
MPH
rain 1hr
in
rain 24hr
in
rain mn
in
humidity
%
barometer
mb
20181210151014 44 325 0.0 2.0 0.00 0.01 0.00 89 1018.8
20181210150514 44 305 0.0 2.0 0.00 0.01 0.00 88 1018.7
20181210150015 44 277 0.0 1.0 0.00 0.01 0.00 89 1018.7
20181210145514 44 350 0.0 1.0 0.00 0.01 0.00 88 1018.6
20181210145014 44 304 0.0 2.0 0.00 0.01 0.00 89 1018.6
20181210144514 44 284 0.0 2.0 0.00 0.01 0.00 89 1018.5
20181210144017 44 277 0.0 2.0 0.00 0.01 0.00 88 1018.4
20181210143514 43 275 0.0 1.0 0.00 0.01 0.00 88 1018.3
20181210143014 43 0 0.0 0.0 0.00 0.01 0.00 89 1018.2
20181210142514 43 0 0.0 0.0 0.00 0.01 0.00 89 1018.0
20181210142014 43 0 0.0 0.0 0.00 0.01 0.00 89 1017.8
20181210141514 43 289 0.0 2.0 0.00 0.01 0.00 89 1017.8
20181210141015 43 289 0.0 2.0 0.00 0.01 0.00 89 1017.7
20181210140514 43 0 0.0 0.0 0.00 0.01 0.00 89 1017.6
20181210140014 43 0 0.0 0.0 0.00 0.01 0.00 90 1017.5
20181210135514 42 0 0.0 0.0 0.00 0.01 0.00 90 1017.5
20181210135013 42 0 0.0 0.0 0.00 0.01 0.00 89 1017.4
20181210134514 42 0 0.0 0.0 0.00 0.01 0.00 89 1017.3
20181210134014 42 294 0.0 1.0 0.00 0.01 0.00 90 1017.3
20181210133514 42 305 0.0 1.0 0.00 0.01 0.00 89 1017.2
20181210133014 42 316 0.0 1.0 0.00 0.01 0.00 90 1017.3
20181210132514 42 295 0.0 1.0 0.00 0.01 0.00 90 1017.2
20181210132014 42 295 0.0 1.0 0.00 0.01 0.00 90 1017.2
20181210131514 42 0 0.0 0.0 0.00 0.01 0.00 90 1016.9
20181210131014 42 0 0.0 0.0 0.00 0.01 0.00 89 1016.8
20181210130513 42 0 0.0 0.0 0.00 0.01 0.00 89 1016.9
20181210130013 42 0 0.0 0.0 0.00 0.01 0.00 90 1016.6
20181210125514 42 0 0.0 0.0 0.00 0.01 0.00 90 1016.7
20181210125014 42 0 0.0 0.0 0.00 0.01 0.00 90 1016.7
20181210124514 42 0 0.0 0.0 0.00 0.01 0.00 90 1016.6
20181210124013 42 324 0.0 5.0 0.00 0.01 0.00 90 1016.6
20181210123514 42 324 0.0 5.0 0.00 0.01 0.00 90 1016.5
20181210123014 42 309 0.0 1.0 0.00 0.01 0.00 90 1016.4
20181210122514 42 323 0.0 1.0 0.00 0.01 0.00 91 1016.6
20181210122014 42 323 0.0 1.0 0.00 0.01 0.00 91 1016.5
20181210121513 42 323 0.0 1.0 0.00 0.01 0.00 91 1016.5
20181210121013 41 343 0.0 5.0 0.00 0.01 0.00 90 1016.6
20181210120514 41 346 0.0 5.0 0.00 0.01 0.00 90 1016.6
20181210120017 42 346 0.0 4.0 0.00 0.01 0.00 90 1016.5
20181210115514 42 292 0.0 1.0 0.00 0.01 0.00 90 1016.5
20181210115013 42 334 1.0 7.0 0.00 0.01 0.00 90 1016.4
20181210114513 42 324 1.0 7.0 0.00 0.01 0.00 90 1016.3
20181210114014 42 307 0.0 6.0 0.00 0.01 0.00 91 1016.4
20181210113514 42 323 1.0 7.0 0.00 0.01 0.00 92 1016.2
20181210113014 42 334 2.0 7.0 0.00 0.02 0.00 92 1016.1
20181210112513 42 340 2.0 7.0 0.00 0.02 0.00 92 1016.1
20181210112013 42 330 2.0 9.0 0.00 0.02 0.00 93 1016.0
20181210111514 42 328 2.0 9.0 0.00 0.02 0.00 93 1015.9
20181210111014 42 337 1.0 7.0 0.00 0.02 0.00 93 1015.8
20181210110513 43 294 0.0 8.0 0.00 0.02 0.00 93 1015.8
20181210110013 43 303 0.0 8.0 0.00 0.03 0.00 93 1015.7
20181210105513 43 311 0.0 4.0 0.00 0.03 0.00 93 1015.7
20181210105013 43 322 1.0 5.0 0.00 0.03 0.00 92 1015.6
20181210104514 43 324 1.0 5.0 0.00 0.04 0.00 92 1015.5
20181210104013 43 331 1.0 5.0 0.00 0.04 0.00 92 1015.4
20181210103513 43 329 0.0 6.0 0.00 0.04 0.00 92 1015.3
20181210103013 43 317 0.0 8.0 0.00 0.04 0.00 92 1015.3
20181210102514 43 335 1.0 8.0 0.00 0.04 0.00 92 1015.3
20181210102013 43 338 1.0 7.0 0.00 0.04 0.00 92 1015.2
20181210101513 43 333 0.0 7.0 0.00 0.04 0.00 92 1015.1
20181210101013 43 0 0.0 0.0 0.00 0.05 0.00 92 1015.1
20181210100513 43 0 0.0 0.0 0.00 0.05 0.00 92 1015.0
20181210100014 43 0 0.0 0.0 0.00 0.06 0.00 92 1014.9
20181210095513 43 317 0.0 2.0 0.00 0.06 0.00 92 1014.7
20181210095013 43 340 0.0 2.0 0.00 0.07 0.00 92 1014.9
20181210094513 43 336 0.0 5.0 0.00 0.08 0.00 92 1014.7
20181210094014 43 324 0.0 5.0 0.00 0.08 0.00 91 1014.7
20181210093513 43 312 0.0 2.0 0.00 0.08 0.00 91 1014.7
20181210093013 43 288 0.0 4.0 0.00 0.10 0.00 91 1014.7
20181210092513 43 288 0.0 4.0 0.00 0.13 0.00 91 1014.7
20181210092013 43 305 0.0 4.0 0.00 0.14 0.00 91 1014.7
20181210091513 43 309 0.0 2.0 0.00 0.15 0.00 91 1014.7
20181210091013 43 330 0.0 2.0 0.00 0.15 0.00 91 1014.8
20181210090513 43 277 0.0 2.0 0.00 0.15 0.00 91 1014.7
20181210090013 43 265 0.0 2.0 0.00 0.16 0.00 91 1014.7
20181210085513 43 0 0.0 0.0 0.00 0.16 0.00 91 1014.7
20181210085013 43 0 0.0 0.0 0.00 0.21 0.00 91 1014.7
20181210084513 43 320 0.0 6.0 0.00 0.26 0.00 91 1014.6
20181210084013 43 317 0.0 6.0 0.00 0.28 0.00 91 1014.7
20181210083512 43 281 0.0 2.0 0.00 0.30 0.00 91 1014.6
20181210083012 43 276 0.0 5.0 0.00 0.31 0.00 92 1014.6
20181210082513 43 282 0.0 5.0 0.00 0.32 0.00 92 1014.6
20181210082013 43 290 0.0 2.0 0.00 0.33 0.00 92 1014.7
20181210081513 43 0 0.0 0.0 0.00 0.35 0.00 92 1014.6
20181210081013 43 0 0.0 0.0 0.00 0.36 0.00 92 1014.6
20181210080512 43 299 0.0 5.0 0.00 0.38 0.00 92 1014.6
20181210080013 43 313 0.0 5.0 0.00 0.39 0.00 91 1014.4
20181210075513 43 334 0.0 5.0 0.00 0.40 0.00 91 1014.5
20181210075013 43 327 1.0 5.0 0.00 0.41 0.00 91 1014.3
20181210074512 43 324 1.0 7.0 0.00 0.42 0.00 91 1014.3
20181210074013 43 332 1.0 7.0 0.00 0.43 0.00 91 1014.2
20181210073513 44 338 0.0 4.0 0.00 0.44 0.00 91 1014.3
20181210073013 44 347 1.0 7.0 0.00 0.44 0.00 91 1014.2
20181210072512 44 352 1.0 7.0 0.00 0.44 0.00 90 1014.2
20181210072012 44 330 0.0 5.0 0.00 0.44 0.00 91 1014.2
20181210071513 44 326 0.0 5.0 0.00 0.44 0.00 91 1014.2
20181210071013 44 324 0.0 4.0 0.00 0.45 0.00 91 1014.2
20181210070513 44 333 0.0 3.0 0.00 0.45 0.00 91 1014.1
20181210070012 44 342 0.0 5.0 0.00 0.45 0.00 91 1014.2
20181210065512 44 343 0.0 5.0 0.00 0.46 0.00 91 1014.1
20181210065013 44 341 0.0 5.0 0.00 0.46 0.00 91 1014.1
20181210064513 44 340 0.0 7.0 0.00 0.46 0.00 91 1014.1
20181210064012 44 326 0.0 7.0 0.00 0.46 0.00 91 1014.2
20181210063512 44 312 0.0 4.0 0.00 0.46 0.00 91 1014.2
20181210063012 44 316 0.0 4.0 0.00 0.47 0.00 91 1014.3
20181210062513 44 307 0.0 4.0 0.00 0.47 0.00 91 1014.2
20181210062013 44 321 0.0 4.0 0.00 0.48 0.00 92 1014.2
20181210061512 44 339 0.0 4.0 0.00 0.49 0.00 92 1014.3
20181210061012 44 321 0.0 6.0 0.00 0.50 0.00 92 1014.3
20181210060512 44 335 1.0 6.0 0.00 0.50 0.00 92 1014.2
20181210060013 44 346 0.0 4.0 0.00 0.50 0.00 92 1014.2
20181210055513 44 328 0.0 4.0 0.00 0.50 0.00 92 1014.2
20181210055012 44 281 0.0 6.0 0.00 0.50 0.00 92 1014.1
20181210054512 44 282 0.0 6.0 0.00 0.50 0.00 92 1014.1
20181210054012 45 295 0.0 6.0 0.00 0.50 0.00 92 1014.2
20181210053513 45 296 0.0 6.0 0.00 0.50 0.00 92 1014.1
20181210053012 45 296 0.0 3.0 0.00 0.50 0.00 93 1014.2
20181210052512 45 289 0.0 6.0 0.00 0.51 0.00 93 1014.1
20181210052012 45 290 0.0 6.0 0.00 0.51 0.00 93 1014.1
20181210051513 45 301 0.0 4.0 0.00 0.51 0.00 94 1014.1
20181210051012 45 298 0.0 4.0 0.00 0.51 0.00 94 1014.2
20181210050512 45 293 0.0 4.0 0.00 0.51 0.00 94 1014.1
20181210050012 45 0 0.0 0.0 0.00 0.51 0.00 94 1014.1
20181210045512 45 347 0.0 1.0 0.00 0.51 0.51 94 1014.1
20181210045012 45 352 0.0 5.0 0.00 0.51 0.51 94 1014.1
20181210044512 45 351 0.0 5.0 0.00 0.51 0.51 94 1014.1
20181210044012 45 348 0.0 5.0 0.00 0.52 0.51 94 1014.0
20181210043512 45 340 0.0 4.0 0.00 0.52 0.51 94 1014.1
20181210043012 45 332 0.0 4.0 0.00 0.52 0.51 94 1014.1
20181210042512 45 325 0.0 4.0 0.00 0.52 0.51 94 1014.2
20181210042012 45 320 0.0 4.0 0.00 0.52 0.51 94 1014.2
20181210041512 45 329 0.0 5.0 0.00 0.52 0.51 94 1014.1
20181210041012 45 342 1.0 5.0 0.00 0.52 0.51 93 1014.1
20181210040512 45 336 1.0 6.0 0.00 0.52 0.51 93 1014.0
20181210040012 45 330 1.0 9.0 0.00 0.52 0.51 93 1013.9
20181210035512 45 338 1.0 9.0 0.00 0.52 0.51 93 1014.0
20181210035012 45 341 1.0 8.0 0.00 0.52 0.51 93 1014.0
20181210034512 46 342 1.0 8.0 0.00 0.52 0.51 93 1014.1
20181210034011 46 353 0.0 7.0 0.00 0.52 0.51 93 1014.0
20181210033512 46 318 0.0 7.0 0.00 0.52 0.51 93 1013.9
20181210033012 46 332 0.0 7.0 0.00 0.52 0.51 93 1013.9
20181210032512 46 343 0.0 7.0 0.00 0.52 0.51 93 1013.7
20181210032011 46 271 0.0 1.0 0.00 0.52 0.51 93 1013.8
20181210031511 46 334 0.0 4.0 0.00 0.52 0.51 93 1013.8
20181210031012 46 337 0.0 4.0 0.00 0.52 0.51 93 1013.7
20181210030512 46 333 0.0 1.0 0.00 0.52 0.51 94 1013.7
20181210030012 46 346 1.0 6.0 0.00 0.52 0.51 94 1013.7
20181210025511 46 342 1.0 6.0 0.00 0.52 0.51 93 1013.6
20181210025011 46 333 1.0 7.0 0.00 0.52 0.51 93 1013.6
20181210024512 46 340 1.0 8.0 0.00 0.52 0.51 93 1013.5
20181210024012 46 343 1.0 8.0 0.00 0.52 0.51 93 1013.5
20181210023512 46 324 1.0 7.0 0.00 0.52 0.51 94 1013.6
20181210023011 46 337 1.0 8.0 0.00 0.52 0.51 94 1013.6
20181210022511 47 342 2.0 8.0 0.00 0.52 0.51 94 1013.5
20181210022012 47 336 1.0 8.0 0.00 0.52 0.51 94 1013.5
20181210021512 47 338 1.0 8.0 0.00 0.52 0.51 93 1013.4
20181210021012 47 358 1.0 6.0 0.00 0.52 0.51 94 1013.3
20181210020511 47 355 1.0 6.0 0.00 0.52 0.51 93 1013.2
20181210020011 48 342 0.0 5.0 0.00 0.52 0.51 94 1013.2
20181210015512 48 312 0.0 4.0 0.00 0.52 0.51 94 1013.2
20181210015012 47 329 1.0 6.0 0.00 0.52 0.51 94 1013.1
20181210014511 47 332 0.0 6.0 0.00 0.52 0.51 94 1013.0
20181210014011 48 340 0.0 4.0 0.00 0.52 0.51 94 1012.9
20181210013512 48 337 0.0 4.0 0.00 0.52 0.51 95 1012.8
20181210013012 48 337 0.0 5.0 0.00 0.52 0.51 94 1012.9
20181210012511 48 347 1.0 6.0 0.00 0.52 0.51 94 1012.9
20181210012011 48 341 1.0 6.0 0.00 0.52 0.51 94 1012.9
20181210011511 48 329 1.0 7.0 0.00 0.52 0.51 94 1012.9
20181210011012 48 330 1.0 7.0 0.00 0.52 0.51 95 1012.7
20181210010512 48 337 1.0 7.0 0.00 0.52 0.51 94 1012.5
20181210010011 48 336 1.0 6.0 0.00 0.52 0.51 94 1012.5
20181210005511 48 335 0.0 6.0 0.00 0.52 0.51 94 1012.5
20181210005012 48 340 1.0 5.0 0.00 0.52 0.51 94 1012.5
20181210004512 49 339 0.0 5.0 0.00 0.52 0.51 94 1012.3
20181210004011 49 336 0.0 4.0 0.00 0.52 0.51 94 1012.2
20181210003511 49 358 0.0 5.0 0.00 0.52 0.51 94 1012.2
20181210003012 49 353 0.0 5.0 0.00 0.52 0.51 94 1011.9
20181210002511 50 326 0.0 4.0 0.00 0.52 0.51 94 1011.8
20181210002011 50 332 0.0 4.0 0.00 0.52 0.51 94 1011.9
20181210001511 50 317 0.0 2.0 0.00 0.52 0.51 94 1011.7
20181210001012 50 292 0.0 2.0 0.00 0.52 0.51 94 1011.6
20181210000511 50 332 0.0 6.0 0.00 0.52 0.51 94 1011.7
20181210000011 50 329 0.0 6.0 0.00 0.52 0.51 94 1011.6
20181209235511 50 322 0.0 5.0 0.00 0.52 0.51 94 1011.6
20181209235010 50 313 0.0 4.0 0.00 0.52 0.51 94 1011.6
20181209234511 50 311 0.0 4.0 0.00 0.52 0.51 94 1011.5
20181209234011 50 311 0.0 4.0 0.00 0.52 0.51 94 1011.5
20181209233511 50 323 0.0 4.0 0.00 0.52 0.51 94 1011.3
20181209233011 50 326 0.0 5.0 0.00 0.52 0.51 94 1011.2
20181209232511 51 314 0.0 5.0 0.00 0.52 0.51 94 1011.3
20181209232011 51 292 0.0 2.0 0.00 0.52 0.51 94 1011.2
20181209231511 51 286 0.0 1.0 0.00 0.52 0.51 94 1011.2
20181209231011 51 298 0.0 4.0 0.00 0.52 0.51 94 1011.2
20181209230511 51 307 0.0 4.0 0.00 0.52 0.51 94 1011.1
20181209230011 51 314 0.0 4.0 0.00 0.52 0.51 95 1011.0
20181209225511 51 311 0.0 1.0 0.00 0.52 0.51 95 1010.9
20181209225011 51 332 0.0 6.0 0.01 0.52 0.51 95 1010.8
20181209224511 52 329 0.0 6.0 0.01 0.52 0.51 94 1010.7
20181209224010 52 297 0.0 6.0 0.01 0.52 0.51 95 1010.7
20181209223511 52 283 0.0 7.0 0.01 0.52 0.51 95 1010.7
20181209223011 52 276 0.0 7.0 0.01 0.52 0.51 95 1010.7
20181209222511 52 354 0.0 1.0 0.01 0.52 0.51 94 1010.7
20181209222011 52 324 0.0 4.0 0.01 0.52 0.51 94 1010.6
20181209221510 52 325 0.0 5.0 0.01 0.52 0.51 94 1010.5
20181209221011 52 332 0.0 5.0 0.01 0.52 0.51 94 1010.4
20181209220511 53 341 0.0 2.0 0.01 0.52 0.51 94 1010.5
20181209220010 53 330 0.0 2.0 0.01 0.52 0.51 94 1010.4
20181209215510 53 328 0.0 2.0 0.01 0.52 0.51 94 1010.3
20181209215010 53 333 0.0 4.0 0.00 0.51 0.50 94 1010.2
20181209214511 53 342 0.0 4.0 0.00 0.51 0.50 93 1010.1
20181209214011 54 347 0.0 4.0 0.00 0.51 0.50 93 1010.0
20181209213510 54 357 0.0 5.0 0.00 0.51 0.50 93 1010.1
20181209213010 54 2 0.0 5.0 0.00 0.51 0.50 93 1010.1
20181209212510 54 269 1.0 5.0 0.00 0.51 0.50 93 1010.1
20181209212011 54 281 1.0 7.0 0.00 0.51 0.50 93 1010.0
20181209211511 55 290 1.0 7.0 0.00 0.51 0.50 93 1010.1
20181209211010 55 296 0.0 5.0 0.00 0.51 0.50 92 1010.1
20181209210510 55 315 0.0 4.0 0.00 0.51 0.50 92 1009.9
20181209210011 55 313 0.0 4.0 0.00 0.51 0.50 92 1009.8
20181209205511 56 288 0.0 4.0 0.00 0.51 0.50 92 1009.6
20181209205010 56 297 1.0 6.0 0.00 0.51 0.50 92 1009.6
20181209204510 56 302 0.0 6.0 0.00 0.51 0.50 91 1009.7
20181209204010 56 310 1.0 4.0 0.00 0.51 0.50 90 1009.7
20181209203511 57 315 1.0 5.0 0.00 0.51 0.50 89 1009.6
20181209203010 58 298 1.0 6.0 0.00 0.51 0.50 88 1009.7
20181209202510 58 281 1.0 6.0 0.00 0.51 0.50 87 1009.5
20181209202010 58 277 1.0 9.0 0.00 0.51 0.50 86 1009.5
20181209201510 58 277 1.0 9.0 0.00 0.51 0.50 86 1009.4
20181209201011 59 278 1.0 7.0 0.00 0.51 0.50 87 1009.4
20181209200510 58 275 1.0 6.0 0.00 0.51 0.50 86 1009.3
20181209200010 59 279 1.0 8.0 0.00 0.51 0.50 86 1009.3
20181209195510 59 282 1.0 8.0 0.00 0.51 0.50 86 1009.3
20181209195011 59 271 0.0 6.0 0.00 0.51 0.50 85 1009.2
20181209194510 59 276 1.0 9.0 0.00 0.51 0.50 85 1009.2
20181209194010 59 278 1.0 9.0 0.00 0.51 0.50 86 1009.2
20181209193510 60 274 0.0 8.0 0.00 0.51 0.50 86 1009.3
20181209193010 60 266 0.0 3.0 0.00 0.51 0.50 86 1009.2
20181209192511 60 0 0.0 0.0 0.00 0.51 0.50 86 1009.3
20181209192010 60 285 0.0 7.0 0.00 0.51 0.50 85 1009.1
20181209191510 61 286 0.0 7.0 0.00 0.51 0.50 85 1008.9
20181209191010 61 278 0.0 4.0 0.00 0.51 0.50 85 1008.9
20181209190511 60 270 1.0 7.0 0.00 0.51 0.50 85 1008.8
20181209190010 60 272 1.0 7.0 0.00 0.51 0.50 86 1008.8
20181209185510 60 262 0.0 6.0 0.00 0.51 0.50 86 1008.9
20181209185010 60 263 0.0 5.0 0.00 0.51 0.50 87 1009.0
20181209184510 60 274 0.0 5.0 0.00 0.51 0.50 86 1009.1
20181209184010 60 258 0.0 1.0 0.00 0.51 0.50 86 1009.1
20181209183510 60 270 0.0 1.0 0.00 0.51 0.50 86 1009.2
20181209183010 61 299 0.0 1.0 0.00 0.51 0.50 86 1009.2
20181209182510 61 322 0.0 1.0 0.00 0.51 0.50 85 1009.3
20181209182010 61 310 0.0 1.0 0.00 0.51 0.50 86 1009.3
20181209181510 61 289 1.0 12.0 0.00 0.51 0.50 85 1009.3
20181209181010 62 289 1.0 12.0 0.00 0.51 0.50 85 1009.3
20181209180510 62 265 1.0 6.0 0.00 0.51 0.50 84 1009.3
20181209180009 62 274 3.0 9.0 0.00 0.51 0.50 84 1009.2
20181209175510 61 271 3.0 9.0 0.00 0.51 0.50 84 1009.3
20181209175010 61 272 3.0 9.0 0.00 0.51 0.50 84 1009.4
20181209174510 61 280 3.0 9.0 0.00 0.51 0.50 85 1009.5
20181209174009 61 273 3.0 9.0 0.00 0.51 0.50 85 1009.7
20181209173509 61 281 3.0 8.0 0.00 0.51 0.50 85 1009.8
20181209173010 61 285 3.0 9.0 0.00 0.51 0.50 85 1009.9
20181209172510 61 276 4.0 9.0 0.00 0.51 0.50 86 1009.9
20181209172010 61 272 3.0 7.0 0.00 0.51 0.50 86 1010.1
20181209171509 60 275 3.0 11.0 0.00 0.51 0.50 86 1010.2
20181209171009 60 282 2.0 11.0 0.00 0.51 0.50 87 1010.2
20181209170510 60 284 2.0 6.0 0.00 0.51 0.50 88 1010.3
20181209170010 60 267 2.0 7.0 0.00 0.51 0.50 88 1010.4
20181209165509 60 273 2.0 7.0 0.00 0.51 0.50 88 1010.3
20181209165009 60 282 2.0 7.0 0.00 0.51 0.50 89 1010.3
20181209164509 60 285 2.0 8.0 0.00 0.51 0.50 89 1010.1
20181209164010 60 281 3.0 9.0 0.00 0.51 0.50 89 1010.1
20181209163510 60 281 2.0 9.0 0.00 0.51 0.50 88 1010.1
20181209163009 61 288 2.0 8.0 0.00 0.51 0.50 89 1010.3
20181209162509 61 285 3.0 8.0 0.00 0.51 0.50 89 1010.2
20181209162010 61 288 4.0 10.0 0.00 0.51 0.50 89 1010.2
20181209161510 61 292 4.0 13.0 0.00 0.51 0.50 88 1010.0
20181209161009 62 291 3.0 13.0 0.00 0.51 0.50 88 1010.1
20181209160509 62 279 3.0 8.0 0.00 0.51 0.50 89 1010.2
20181209160010 62 276 4.0 13.0 0.00 0.51 0.50 90 1010.1
20181209155509 62 283 5.0 13.0 0.00 0.51 0.50 89 1010.1
20181209155009 62 285 4.0 12.0 0.00 0.51 0.50 89 1010.0
20181209154509 62 284 3.0 12.0 0.00 0.51 0.50 89 1010.1
20181209154009 62 285 3.0 14.0 0.00 0.51 0.50 90 1009.8
20181209153510 62 280 3.0 14.0 0.00 0.51 0.50 91 1009.8
20181209153009 62 279 5.0 14.0 0.00 0.51 0.50 92 1009.8
20181209152509 62 281 5.0 14.0 0.00 0.51 0.50 91 1009.8
20181209152009 62 285 3.0 9.0 0.00 0.51 0.50 92 1009.9
20181209151509 62 289 2.0 13.0 0.00 0.51 0.50 92 1009.8